sensor_id;sensor_type;location;lat;lon;timestamp;temperature;humidity
18189;DHT22;9219;50.396;8.546;2023-11-21T00:00:26;10.20;99.90
18189;DHT22;9219;50.396;8.546;2023-11-21T00:02:53;10.10;99.90
18189;DHT22;9219;50.396;8.546;2023-11-21T00:05:21;10.00;99.90
18189;DHT22;9219;50.396;8.546;2023-11-21T00:07:49;10.00;99.90
18189;DHT22;9219;50.396;8.546;2023-11-21T00:10:18;10.10;99.90
18189;DHT22;9219;50.396;8.546;2023-11-21T00:17:51;10.00;99.90
18189;DHT22;9219;50.396;8.546;2023-11-21T00:20:18;10.10;99.90
18189;DHT22;9219;50.396;8.546;2023-11-21T00:22:45;10.20;99.90
18189;DHT22;9219;50.396;8.546;2023-11-21T00:25:13;10.20;99.90
18189;DHT22;9219;50.396;8.546;2023-11-21T00:27:41;10.10;99.90
18189;DHT22;9219;50.396;8.546;2023-11-21T00:30:09;10.10;99.90
18189;DHT22;9219;50.396;8.546;2023-11-21T00:32:37;9.90;99.90
18189;DHT22;9219;50.396;8.546;2023-11-21T00:35:07;10.00;99.90
18189;DHT22;9219;50.396;8.546;2023-11-21T00:39:18;10.10;99.90
18189;DHT22;9219;50.396;8.546;2023-11-21T00:41:45;10.00;99.90
18189;DHT22;9219;50.396;8.546;2023-11-21T00:44:12;9.90;99.90
18189;DHT22;9219;50.396;8.546;2023-11-21T00:46:39;9.90;99.90
18189;DHT22;9219;50.396;8.546;2023-11-21T00:49:06;9.80;99.90
18189;DHT22;9219;50.396;8.546;2023-11-21T00:51:34;9.80;99.90
18189;DHT22;9219;50.396;8.546;2023-11-21T00:54:01;9.80;99.90
18189;DHT22;9219;50.396;8.546;2023-11-21T00:56:29;9.80;99.90
18189;DHT22;9219;50.396;8.546;2023-11-21T01:04:30;10.10;99.90
18189;DHT22;9219;50.396;8.546;2023-11-21T01:06:58;10.70;99.90
18189;DHT22;9219;50.396;8.546;2023-11-21T01:09:25;10.80;99.90
18189;DHT22;9219;50.396;8.546;2023-11-21T01:11:53;10.80;99.90
18189;DHT22;9219;50.396;8.546;2023-11-21T01:14:20;10.60;99.90
18189;DHT22;9219;50.396;8.546;2023-11-21T01:16:46;10.50;99.90
18189;DHT22;9219;50.396;8.546;2023-11-21T01:19:15;10.50;99.90
18189;DHT22;9219;50.396;8.546;2023-11-21T01:21:43;10.30;99.90
18189;DHT22;9219;50.396;8.546;2023-11-21T01:29:40;10.30;99.90
18189;DHT22;9219;50.396;8.546;2023-11-21T01:32:07;10.10;99.90
18189;DHT22;9219;50.396;8.546;2023-11-21T01:34:36;10.20;99.90
18189;DHT22;9219;50.396;8.546;2023-11-21T01:37:03;9.70;99.90
18189;DHT22;9219;50.396;8.546;2023-11-21T01:39:32;9.10;99.90
18189;DHT22;9219;50.396;8.546;2023-11-21T01:41:59;8.60;99.90
18189;DHT22;9219;50.396;8.546;2023-11-21T01:44:26;8.40;99.90
18189;DHT22;9219;50.396;8.546;2023-11-21T01:53:15;8.50;99.90
18189;DHT22;9219;50.396;8.546;2023-11-21T01:55:42;8.50;99.90
18189;DHT22;9219;50.396;8.546;2023-11-21T01:58:10;8.40;99.90
18189;DHT22;9219;50.396;8.546;2023-11-21T02:00:39;8.40;99.90
18189;DHT22;9219;50.396;8.546;2023-11-21T02:03:06;8.40;99.90
18189;DHT22;9219;50.396;8.546;2023-11-21T02:05:33;8.20;99.90
18189;DHT22;9219;50.396;8.546;2023-11-21T02:08:00;8.10;99.90
18189;DHT22;9219;50.396;8.546;2023-11-21T02:10:30;7.90;99.90
18189;DHT22;9219;50.396;8.546;2023-11-21T02:13:12;8.10;99.90
18189;DHT22;9219;50.396;8.546;2023-11-21T02:15:43;8.30;99.90
18189;DHT22;9219;50.396;8.546;2023-11-21T02:18:10;8.10;99.90
18189;DHT22;9219;50.396;8.546;2023-11-21T02:20:37;8.20;99.90
18189;DHT22;9219;50.396;8.546;2023-11-21T02:23:08;8.20;99.90
18189;DHT22;9219;50.396;8.546;2023-11-21T02:25:35;8.20;99.90
18189;DHT22;9219;50.396;8.546;2023-11-21T02:28:04;8.10;99.90
18189;DHT22;9219;50.396;8.546;2023-11-21T02:35:35;8.40;99.90
18189;DHT22;9219;50.396;8.546;2023-11-21T02:38:02;8.70;99.90
18189;DHT22;9219;50.396;8.546;2023-11-21T02:40:29;9.20;99.90
18189;DHT22;9219;50.396;8.546;2023-11-21T02:42:57;9.50;99.90
18189;DHT22;9219;50.396;8.546;2023-11-21T02:45:25;9.10;99.90
18189;DHT22;9219;50.396;8.546;2023-11-21T02:47:52;8.70;99.90
18189;DHT22;9219;50.396;8.546;2023-11-21T02:50:21;8.60;99.90
18189;DHT22;9219;50.396;8.546;2023-11-21T02:52:50;8.90;99.90
18189;DHT22;9219;50.396;8.546;2023-11-21T03:00:51;8.70;99.90
18189;DHT22;9219;50.396;8.546;2023-11-21T03:03:18;8.70;99.90
18189;DHT22;9219;50.396;8.546;2023-11-21T03:05:45;8.50;99.90
18189;DHT22;9219;50.396;8.546;2023-11-21T03:08:12;8.40;99.90
18189;DHT22;9219;50.396;8.546;2023-11-21T03:10:39;8.20;99.90
18189;DHT22;9219;50.396;8.546;2023-11-21T03:13:06;8.30;99.90
18189;DHT22;9219;50.396;8.546;2023-11-21T03:15:34;8.30;99.90
18189;DHT22;9219;50.396;8.546;2023-11-21T03:18:03;8.20;99.90
18189;DHT22;9219;50.396;8.546;2023-11-21T03:26:04;8.40;99.90
18189;DHT22;9219;50.396;8.546;2023-11-21T03:28:31;8.20;99.90
18189;DHT22;9219;50.396;8.546;2023-11-21T03:30:58;8.30;99.90
18189;DHT22;9219;50.396;8.546;2023-11-21T03:33:25;8.30;99.90
18189;DHT22;9219;50.396;8.546;2023-11-21T03:35:52;8.10;99.90
18189;DHT22;9219;50.396;8.546;2023-11-21T03:38:19;8.00;99.90
18189;DHT22;9219;50.396;8.546;2023-11-21T03:40:46;7.90;99.90
18189;DHT22;9219;50.396;8.546;2023-11-21T03:49:50;8.10;99.90
18189;DHT22;9219;50.396;8.546;2023-11-21T03:52:17;8.20;99.90
18189;DHT22;9219;50.396;8.546;2023-11-21T03:54:44;8.20;99.90
18189;DHT22;9219;50.396;8.546;2023-11-21T03:57:11;8.50;99.90
18189;DHT22;9219;50.396;8.546;2023-11-21T03:59:40;8.50;99.90
18189;DHT22;9219;50.396;8.546;2023-11-21T04:02:07;8.00;99.90
18189;DHT22;9219;50.396;8.546;2023-11-21T04:04:35;8.00;99.90
18189;DHT22;9219;50.396;8.546;2023-11-21T04:07:03;7.90;99.90
18189;DHT22;9219;50.396;8.546;2023-11-21T04:09:45;8.00;99.90
18189;DHT22;9219;50.396;8.546;2023-11-21T04:12:15;8.20;99.90
18189;DHT22;9219;50.396;8.546;2023-11-21T04:14:42;8.10;99.90
18189;DHT22;9219;50.396;8.546;2023-11-21T04:17:09;8.20;99.90
18189;DHT22;9219;50.396;8.546;2023-11-21T04:19:36;8.40;99.90
18189;DHT22;9219;50.396;8.546;2023-11-21T04:22:04;8.50;99.90
18189;DHT22;9219;50.396;8.546;2023-11-21T04:24:31;8.40;99.90
18189;DHT22;9219;50.396;8.546;2023-11-21T04:26:59;8.10;99.90
18189;DHT22;9219;50.396;8.546;2023-11-21T04:33:35;8.00;99.90
18189;DHT22;9219;50.396;8.546;2023-11-21T04:36:02;8.30;99.90
18189;DHT22;9219;50.396;8.546;2023-11-21T04:38:29;8.40;99.90
18189;DHT22;9219;50.396;8.546;2023-11-21T04:40:56;8.30;99.90
18189;DHT22;9219;50.396;8.546;2023-11-21T04:43:24;8.20;99.90
18189;DHT22;9219;50.396;8.546;2023-11-21T04:45:51;8.40;99.90
18189;DHT22;9219;50.396;8.546;2023-11-21T04:48:18;8.30;99.90
18189;DHT22;9219;50.396;8.546;2023-11-21T04:50:46;7.90;99.90
18189;DHT22;9219;50.396;8.546;2023-11-21T04:58:33;7.50;99.90
18189;DHT22;9219;50.396;8.546;2023-11-21T05:01:00;7.50;99.90
18189;DHT22;9219;50.396;8.546;2023-11-21T05:03:27;7.40;99.90
18189;DHT22;9219;50.396;8.546;2023-11-21T05:05:56;7.60;99.90
18189;DHT22;9219;50.396;8.546;2023-11-21T05:08:23;7.70;99.90
18189;DHT22;9219;50.396;8.546;2023-11-21T05:10:50;7.70;99.90
18189;DHT22;9219;50.396;8.546;2023-11-21T05:13:18;7.70;99.90
18189;DHT22;9219;50.396;8.546;2023-11-21T05:15:48;7.70;99.90
18189;DHT22;9219;50.396;8.546;2023-11-21T05:23:20;7.90;99.90
18189;DHT22;9219;50.396;8.546;2023-11-21T05:25:46;7.70;99.90
18189;DHT22;9219;50.396;8.546;2023-11-21T05:28:14;7.80;99.90
18189;DHT22;9219;50.396;8.546;2023-11-21T05:30:42;7.70;99.90
18189;DHT22;9219;50.396;8.546;2023-11-21T05:33:09;7.80;99.90
18189;DHT22;9219;50.396;8.546;2023-11-21T05:35:36;7.60;99.90
18189;DHT22;9219;50.396;8.546;2023-11-21T05:38:03;7.70;99.90
18189;DHT22;9219;50.396;8.546;2023-11-21T05:43:20;7.50;99.90
18189;DHT22;9219;50.396;8.546;2023-11-21T05:45:47;7.90;99.90
18189;DHT22;9219;50.396;8.546;2023-11-21T05:48:14;7.70;99.90
18189;DHT22;9219;50.396;8.546;2023-11-21T05:50:42;7.50;99.90
18189;DHT22;9219;50.396;8.546;2023-11-21T05:53:09;7.30;99.90
18189;DHT22;9219;50.396;8.546;2023-11-21T05:55:37;7.10;99.90
18189;DHT22;9219;50.396;8.546;2023-11-21T05:58:05;7.00;99.90
18189;DHT22;9219;50.396;8.546;2023-11-21T06:00:34;7.10;99.90
18189;DHT22;9219;50.396;8.546;2023-11-21T06:03:29;7.20;99.90
18189;DHT22;9219;50.396;8.546;2023-11-21T06:05:57;7.10;99.90
18189;DHT22;9219;50.396;8.546;2023-11-21T06:08:24;7.00;99.90
18189;DHT22;9219;50.396;8.546;2023-11-21T06:10:51;7.00;99.90
18189;DHT22;9219;50.396;8.546;2023-11-21T06:13:18;6.90;99.90
18189;DHT22;9219;50.396;8.546;2023-11-21T06:15:50;7.20;99.90
18189;DHT22;9219;50.396;8.546;2023-11-21T06:18:17;7.10;99.90
18189;DHT22;9219;50.396;8.546;2023-11-21T06:20:47;7.20;99.90
18189;DHT22;9219;50.396;8.546;2023-11-21T06:23:41;7.20;99.90
18189;DHT22;9219;50.396;8.546;2023-11-21T06:26:08;7.00;99.90
18189;DHT22;9219;50.396;8.546;2023-11-21T06:28:36;7.10;99.90
18189;DHT22;9219;50.396;8.546;2023-11-21T06:31:03;6.90;99.90
18189;DHT22;9219;50.396;8.546;2023-11-21T06:33:31;7.00;99.90
18189;DHT22;9219;50.396;8.546;2023-11-21T06:35:58;6.90;99.90
18189;DHT22;9219;50.396;8.546;2023-11-21T06:38:26;7.10;99.90
18189;DHT22;9219;50.396;8.546;2023-11-21T06:40:57;7.30;99.90
18189;DHT22;9219;50.396;8.546;2023-11-21T06:47:33;7.50;99.90
18189;DHT22;9219;50.396;8.546;2023-11-21T06:50:01;7.10;99.90
18189;DHT22;9219;50.396;8.546;2023-11-21T06:52:28;7.10;99.90
18189;DHT22;9219;50.396;8.546;2023-11-21T06:54:55;7.20;99.90
18189;DHT22;9219;50.396;8.546;2023-11-21T06:57:23;7.20;99.90
18189;DHT22;9219;50.396;8.546;2023-11-21T06:59:50;7.30;99.90
18189;DHT22;9219;50.396;8.546;2023-11-21T07:02:17;7.40;99.90
18189;DHT22;9219;50.396;8.546;2023-11-21T07:04:45;7.70;99.90
18189;DHT22;9219;50.396;8.546;2023-11-21T07:12:20;7.50;99.90
18189;DHT22;9219;50.396;8.546;2023-11-21T07:14:52;7.30;99.90
18189;DHT22;9219;50.396;8.546;2023-11-21T07:17:20;7.20;99.90
18189;DHT22;9219;50.396;8.546;2023-11-21T07:19:50;7.40;99.90
18189;DHT22;9219;50.396;8.546;2023-11-21T07:22:17;7.20;99.90
18189;DHT22;9219;50.396;8.546;2023-11-21T07:24:48;7.20;99.90
18189;DHT22;9219;50.396;8.546;2023-11-21T07:27:17;7.30;99.90
18189;DHT22;9219;50.396;8.546;2023-11-21T07:34:48;7.70;99.90
18189;DHT22;9219;50.396;8.546;2023-11-21T07:37:15;7.80;99.90
18189;DHT22;9219;50.396;8.546;2023-11-21T07:39:42;7.30;99.90
18189;DHT22;9219;50.396;8.546;2023-11-21T07:42:10;7.20;99.90
18189;DHT22;9219;50.396;8.546;2023-11-21T07:44:38;7.30;99.90
18189;DHT22;9219;50.396;8.546;2023-11-21T07:47:05;7.40;99.90
18189;DHT22;9219;50.396;8.546;2023-11-21T07:49:32;7.60;99.90
18189;DHT22;9219;50.396;8.546;2023-11-21T07:52:01;8.00;99.90
18189;DHT22;9219;50.396;8.546;2023-11-21T07:54:55;7.80;99.90
18189;DHT22;9219;50.396;8.546;2023-11-21T07:57:23;7.50;99.90
18189;DHT22;9219;50.396;8.546;2023-11-21T07:59:51;7.50;99.90
18189;DHT22;9219;50.396;8.546;2023-11-21T08:02:20;7.20;99.90
18189;DHT22;9219;50.396;8.546;2023-11-21T08:04:47;7.40;99.90
18189;DHT22;9219;50.396;8.546;2023-11-21T08:07:15;7.20;99.90
18189;DHT22;9219;50.396;8.546;2023-11-21T08:09:43;6.90;99.90
18189;DHT22;9219;50.396;8.546;2023-11-21T08:12:15;7.00;99.90
18189;DHT22;9219;50.396;8.546;2023-11-21T08:14:56;7.00;99.90
18189;DHT22;9219;50.396;8.546;2023-11-21T08:17:23;7.20;99.90
18189;DHT22;9219;50.396;8.546;2023-11-21T08:19:50;7.20;99.90
18189;DHT22;9219;50.396;8.546;2023-11-21T08:22:18;7.30;99.90
18189;DHT22;9219;50.396;8.546;2023-11-21T08:24:45;7.10;99.90
18189;DHT22;9219;50.396;8.546;2023-11-21T08:27:13;7.10;99.90
18189;DHT22;9219;50.396;8.546;2023-11-21T08:29:42;7.00;99.90
18189;DHT22;9219;50.396;8.546;2023-11-21T08:32:10;7.00;99.90
18189;DHT22;9219;50.396;8.546;2023-11-21T08:40:12;7.20;99.90
18189;DHT22;9219;50.396;8.546;2023-11-21T08:42:43;7.50;99.90
18189;DHT22;9219;50.396;8.546;2023-11-21T08:45:11;7.20;99.90
18189;DHT22;9219;50.396;8.546;2023-11-21T08:47:39;7.30;99.90
18189;DHT22;9219;50.396;8.546;2023-11-21T08:50:07;7.40;99.90
18189;DHT22;9219;50.396;8.546;2023-11-21T08:52:35;7.30;99.90
18189;DHT22;9219;50.396;8.546;2023-11-21T08:55:04;7.30;99.90
18189;DHT22;9219;50.396;8.546;2023-11-21T08:57:42;7.40;99.90
18189;DHT22;9219;50.396;8.546;2023-11-21T09:04:39;7.40;99.90
18189;DHT22;9219;50.396;8.546;2023-11-21T09:07:08;7.70;99.90
18189;DHT22;9219;50.396;8.546;2023-11-21T09:09:36;7.90;99.90
18189;DHT22;9219;50.396;8.546;2023-11-21T09:12:04;8.10;99.90
18189;DHT22;9219;50.396;8.546;2023-11-21T09:14:32;8.10;99.90
18189;DHT22;9219;50.396;8.546;2023-11-21T09:17:00;8.10;99.90
18189;DHT22;9219;50.396;8.546;2023-11-21T09:19:27;7.80;99.90
18189;DHT22;9219;50.396;8.546;2023-11-21T09:25:56;8.20;99.90
18189;DHT22;9219;50.396;8.546;2023-11-21T09:28:26;8.10;99.90
18189;DHT22;9219;50.396;8.546;2023-11-21T09:30:53;8.30;99.90
18189;DHT22;9219;50.396;8.546;2023-11-21T09:33:22;8.40;99.90
18189;DHT22;9219;50.396;8.546;2023-11-21T09:35:51;8.70;99.90
18189;DHT22;9219;50.396;8.546;2023-11-21T09:38:18;8.70;99.90
18189;DHT22;9219;50.396;8.546;2023-11-21T09:40:46;8.60;99.90
18189;DHT22;9219;50.396;8.546;2023-11-21T09:49:38;9.30;99.90
18189;DHT22;9219;50.396;8.546;2023-11-21T09:52:08;9.40;99.90
18189;DHT22;9219;50.396;8.546;2023-11-21T09:54:36;9.70;99.90
18189;DHT22;9219;50.396;8.546;2023-11-21T09:57:04;9.50;99.90
18189;DHT22;9219;50.396;8.546;2023-11-21T09:59:32;9.20;99.90
18189;DHT22;9219;50.396;8.546;2023-11-21T10:01:59;9.10;99.90
18189;DHT22;9219;50.396;8.546;2023-11-21T10:04:28;9.30;99.90
18189;DHT22;9219;50.396;8.546;2023-11-21T10:06:56;9.20;99.90
18189;DHT22;9219;50.396;8.546;2023-11-21T10:12:04;9.30;99.90
18189;DHT22;9219;50.396;8.546;2023-11-21T10:14:35;9.40;99.90
18189;DHT22;9219;50.396;8.546;2023-11-21T10:17:04;9.20;99.90
18189;DHT22;9219;50.396;8.546;2023-11-21T10:19:36;9.00;99.90
18189;DHT22;9219;50.396;8.546;2023-11-21T10:22:03;8.90;99.90
18189;DHT22;9219;50.396;8.546;2023-11-21T10:24:31;8.70;99.90
18189;DHT22;9219;50.396;8.546;2023-11-21T10:27:15;8.70;99.90
18189;DHT22;9219;50.396;8.546;2023-11-21T10:32:30;9.00;99.90
18189;DHT22;9219;50.396;8.546;2023-11-21T10:34:59;9.30;99.90
18189;DHT22;9219;50.396;8.546;2023-11-21T10:37:26;9.50;99.90
18189;DHT22;9219;50.396;8.546;2023-11-21T10:39:57;9.50;99.90
18189;DHT22;9219;50.396;8.546;2023-11-21T10:42:26;9.60;99.90
18189;DHT22;9219;50.396;8.546;2023-11-21T10:44:54;9.40;99.90
18189;DHT22;9219;50.396;8.546;2023-11-21T10:47:21;9.40;99.90
18189;DHT22;9219;50.396;8.546;2023-11-21T10:54:54;9.30;99.90
18189;DHT22;9219;50.396;8.546;2023-11-21T10:57:22;9.20;99.90
18189;DHT22;9219;50.396;8.546;2023-11-21T10:59:50;9.20;99.90
18189;DHT22;9219;50.396;8.546;2023-11-21T11:02:23;9.10;99.90
18189;DHT22;9219;50.396;8.546;2023-11-21T11:04:54;9.10;99.90
18189;DHT22;9219;50.396;8.546;2023-11-21T11:07:25;9.00;99.90
18189;DHT22;9219;50.396;8.546;2023-11-21T11:09:54;8.90;99.90
18189;DHT22;9219;50.396;8.546;2023-11-21T11:15:01;8.90;99.90
18189;DHT22;9219;50.396;8.546;2023-11-21T11:17:29;9.20;99.90
18189;DHT22;9219;50.396;8.546;2023-11-21T11:19:59;9.20;99.90
18189;DHT22;9219;50.396;8.546;2023-11-21T11:22:44;9.20;99.90
18189;DHT22;9219;50.396;8.546;2023-11-21T11:25:28;9.00;99.90
18189;DHT22;9219;50.396;8.546;2023-11-21T11:28:03;9.20;99.90
18189;DHT22;9219;50.396;8.546;2023-11-21T11:30:41;9.30;99.90
18189;DHT22;9219;50.396;8.546;2023-11-21T11:39:38;9.30;99.90
18189;DHT22;9219;50.396;8.546;2023-11-21T11:42:13;9.40;99.90
18189;DHT22;9219;50.396;8.546;2023-11-21T11:44:51;9.30;99.90
18189;DHT22;9219;50.396;8.546;2023-11-21T11:47:24;9.10;99.90
18189;DHT22;9219;50.396;8.546;2023-11-21T11:50:03;9.10;99.90
18189;DHT22;9219;50.396;8.546;2023-11-21T11:52:41;9.40;99.90
18189;DHT22;9219;50.396;8.546;2023-11-21T11:55:11;9.70;99.90
18189;DHT22;9219;50.396;8.546;2023-11-21T12:02:46;10.00;99.90
18189;DHT22;9219;50.396;8.546;2023-11-21T12:05:14;9.80;99.90
18189;DHT22;9219;50.396;8.546;2023-11-21T12:07:43;9.70;99.90
18189;DHT22;9219;50.396;8.546;2023-11-21T12:10:12;9.50;99.90
18189;DHT22;9219;50.396;8.546;2023-11-21T12:12:48;9.60;99.90
18189;DHT22;9219;50.396;8.546;2023-11-21T12:15:16;9.30;99.90
18189;DHT22;9219;50.396;8.546;2023-11-21T12:17:45;9.10;99.90
18189;DHT22;9219;50.396;8.546;2023-11-21T12:20:13;9.10;99.90
18189;DHT22;9219;50.396;8.546;2023-11-21T12:24:26;9.20;99.90
18189;DHT22;9219;50.396;8.546;2023-11-21T12:26:55;9.30;99.90
18189;DHT22;9219;50.396;8.546;2023-11-21T12:29:22;9.60;99.90
18189;DHT22;9219;50.396;8.546;2023-11-21T12:31:50;9.90;99.90
18189;DHT22;9219;50.396;8.546;2023-11-21T12:34:17;9.70;99.90
18189;DHT22;9219;50.396;8.546;2023-11-21T12:36:44;9.90;99.90
18189;DHT22;9219;50.396;8.546;2023-11-21T12:39:12;9.90;99.90
18189;DHT22;9219;50.396;8.546;2023-11-21T12:41:42;9.90;99.90
18189;DHT22;9219;50.396;8.546;2023-11-21T12:49:42;10.50;99.90
18189;DHT22;9219;50.396;8.546;2023-11-21T12:52:10;10.50;99.90
18189;DHT22;9219;50.396;8.546;2023-11-21T12:54:38;10.30;99.90
18189;DHT22;9219;50.396;8.546;2023-11-21T12:57:04;10.20;99.90
18189;DHT22;9219;50.396;8.546;2023-11-21T12:59:34;10.40;99.90
18189;DHT22;9219;50.396;8.546;2023-11-21T13:02:02;10.60;99.90
18189;DHT22;9219;50.396;8.546;2023-11-21T13:04:33;10.30;99.90
18189;DHT22;9219;50.396;8.546;2023-11-21T13:07:05;10.20;99.90
18189;DHT22;9219;50.396;8.546;2023-11-21T13:09:54;10.50;99.90
18189;DHT22;9219;50.396;8.546;2023-11-21T13:12:24;10.30;99.90
18189;DHT22;9219;50.396;8.546;2023-11-21T13:14:51;9.90;99.90
18189;DHT22;9219;50.396;8.546;2023-11-21T13:17:18;9.90;99.90
18189;DHT22;9219;50.396;8.546;2023-11-21T13:19:48;10.00;99.90
18189;DHT22;9219;50.396;8.546;2023-11-21T13:22:15;10.00;99.90
18189;DHT22;9219;50.396;8.546;2023-11-21T13:24:44;9.60;99.90
18189;DHT22;9219;50.396;8.546;2023-11-21T13:27:13;9.40;99.90
18189;DHT22;9219;50.396;8.546;2023-11-21T13:34:51;8.60;99.90
18189;DHT22;9219;50.396;8.546;2023-11-21T13:37:22;8.50;99.90
18189;DHT22;9219;50.396;8.546;2023-11-21T13:39:51;8.50;99.90
18189;DHT22;9219;50.396;8.546;2023-11-21T13:42:19;8.50;99.90
18189;DHT22;9219;50.396;8.546;2023-11-21T13:44:50;8.60;99.90
18189;DHT22;9219;50.396;8.546;2023-11-21T13:47:18;8.80;99.90
18189;DHT22;9219;50.396;8.546;2023-11-21T13:49:45;8.90;99.90
18189;DHT22;9219;50.396;8.546;2023-11-21T13:55:29;8.50;99.90
18189;DHT22;9219;50.396;8.546;2023-11-21T13:57:56;8.60;99.90
18189;DHT22;9219;50.396;8.546;2023-11-21T14:00:23;8.70;99.90
18189;DHT22;9219;50.396;8.546;2023-11-21T14:03:08;8.80;99.90
18189;DHT22;9219;50.396;8.546;2023-11-21T14:05:44;9.10;99.90
18189;DHT22;9219;50.396;8.546;2023-11-21T14:08:13;9.20;99.90
18189;DHT22;9219;50.396;8.546;2023-11-21T14:10:44;9.20;99.90
18189;DHT22;9219;50.396;8.546;2023-11-21T14:18:19;9.20;99.90
18189;DHT22;9219;50.396;8.546;2023-11-21T14:20:54;9.20;99.90
18189;DHT22;9219;50.396;8.546;2023-11-21T14:23:21;9.30;99.90
18189;DHT22;9219;50.396;8.546;2023-11-21T14:25:49;9.40;99.90
18189;DHT22;9219;50.396;8.546;2023-11-21T14:28:18;9.50;99.90
18189;DHT22;9219;50.396;8.546;2023-11-21T14:30:46;9.60;99.90
18189;DHT22;9219;50.396;8.546;2023-11-21T14:33:13;9.40;99.90
18189;DHT22;9219;50.396;8.546;2023-11-21T14:38:20;9.20;99.90
18189;DHT22;9219;50.396;8.546;2023-11-21T14:40:47;9.30;99.90
18189;DHT22;9219;50.396;8.546;2023-11-21T14:43:15;9.30;99.90
18189;DHT22;9219;50.396;8.546;2023-11-21T14:45:43;9.40;99.90
18189;DHT22;9219;50.396;8.546;2023-11-21T14:48:10;9.50;99.90
18189;DHT22;9219;50.396;8.546;2023-11-21T14:50:42;9.50;99.90
18189;DHT22;9219;50.396;8.546;2023-11-21T14:53:19;9.50;99.90
18189;DHT22;9219;50.396;8.546;2023-11-21T14:59:53;9.40;99.90
18189;DHT22;9219;50.396;8.546;2023-11-21T15:02:24;9.00;99.90
18189;DHT22;9219;50.396;8.546;2023-11-21T15:05:15;9.20;99.90
18189;DHT22;9219;50.396;8.546;2023-11-21T15:07:42;9.20;99.90
18189;DHT22;9219;50.396;8.546;2023-11-21T15:10:10;8.90;99.90
18189;DHT22;9219;50.396;8.546;2023-11-21T15:12:41;9.10;99.90
18189;DHT22;9219;50.396;8.546;2023-11-21T15:15:10;9.00;99.90
18189;DHT22;9219;50.396;8.546;2023-11-21T15:17:38;9.00;99.90
18189;DHT22;9219;50.396;8.546;2023-11-21T15:20:34;9.10;99.90
18189;DHT22;9219;50.396;8.546;2023-11-21T15:23:01;9.10;99.90
18189;DHT22;9219;50.396;8.546;2023-11-21T15:25:31;9.00;99.90
18189;DHT22;9219;50.396;8.546;2023-11-21T15:27:58;8.90;99.90
18189;DHT22;9219;50.396;8.546;2023-11-21T15:30:26;8.90;99.90
18189;DHT22;9219;50.396;8.546;2023-11-21T15:32:53;9.10;99.90
18189;DHT22;9219;50.396;8.546;2023-11-21T15:35:21;9.10;99.90
18189;DHT22;9219;50.396;8.546;2023-11-21T15:40:31;9.10;99.90
18189;DHT22;9219;50.396;8.546;2023-11-21T15:42:59;8.90;99.90
18189;DHT22;9219;50.396;8.546;2023-11-21T15:45:26;9.10;99.90
18189;DHT22;9219;50.396;8.546;2023-11-21T15:47:53;9.00;99.90
18189;DHT22;9219;50.396;8.546;2023-11-21T15:50:21;8.90;99.90
18189;DHT22;9219;50.396;8.546;2023-11-21T15:52:48;8.90;99.90
18189;DHT22;9219;50.396;8.546;2023-11-21T15:55:24;8.60;99.90
18189;DHT22;9219;50.396;8.546;2023-11-21T16:01:28;8.50;99.90
18189;DHT22;9219;50.396;8.546;2023-11-21T16:03:55;8.50;99.90
18189;DHT22;9219;50.396;8.546;2023-11-21T16:06:23;8.50;99.90
18189;DHT22;9219;50.396;8.546;2023-11-21T16:08:50;8.30;99.90
18189;DHT22;9219;50.396;8.546;2023-11-21T16:11:17;8.20;99.90
18189;DHT22;9219;50.396;8.546;2023-11-21T16:13:44;8.20;99.90
18189;DHT22;9219;50.396;8.546;2023-11-21T16:16:20;8.00;99.90
18189;DHT22;9219;50.396;8.546;2023-11-21T16:25:08;7.70;99.90
18189;DHT22;9219;50.396;8.546;2023-11-21T16:27:37;7.70;99.90
18189;DHT22;9219;50.396;8.546;2023-11-21T16:30:05;7.70;99.90
18189;DHT22;9219;50.396;8.546;2023-11-21T16:32:32;7.80;99.90
18189;DHT22;9219;50.396;8.546;2023-11-21T16:35:02;7.80;99.90
18189;DHT22;9219;50.396;8.546;2023-11-21T16:37:30;7.90;99.90
18189;DHT22;9219;50.396;8.546;2023-11-21T16:39:57;7.70;99.90
18189;DHT22;9219;50.396;8.546;2023-11-21T16:46:05;7.70;99.90
18189;DHT22;9219;50.396;8.546;2023-11-21T16:48:32;7.80;99.90
18189;DHT22;9219;50.396;8.546;2023-11-21T16:50:59;7.90;99.90
18189;DHT22;9219;50.396;8.546;2023-11-21T16:53:27;7.70;99.90
18189;DHT22;9219;50.396;8.546;2023-11-21T16:55:54;7.80;99.90
18189;DHT22;9219;50.396;8.546;2023-11-21T16:58:21;7.90;99.90
18189;DHT22;9219;50.396;8.546;2023-11-21T17:00:49;7.80;99.90
18189;DHT22;9219;50.396;8.546;2023-11-21T17:03:17;7.80;99.90
18189;DHT22;9219;50.396;8.546;2023-11-21T17:11:21;7.90;99.90
18189;DHT22;9219;50.396;8.546;2023-11-21T17:13:49;8.00;99.90
18189;DHT22;9219;50.396;8.546;2023-11-21T17:16:17;7.80;99.90
18189;DHT22;9219;50.396;8.546;2023-11-21T17:18:44;7.70;99.90
18189;DHT22;9219;50.396;8.546;2023-11-21T17:21:11;7.60;99.90
18189;DHT22;9219;50.396;8.546;2023-11-21T17:23:51;7.80;99.90
18189;DHT22;9219;50.396;8.546;2023-11-21T17:26:20;7.70;99.90
18189;DHT22;9219;50.396;8.546;2023-11-21T17:32:15;7.70;99.90
18189;DHT22;9219;50.396;8.546;2023-11-21T17:34:43;7.60;99.90
18189;DHT22;9219;50.396;8.546;2023-11-21T17:37:10;7.50;99.90
18189;DHT22;9219;50.396;8.546;2023-11-21T17:39:38;7.50;99.90
18189;DHT22;9219;50.396;8.546;2023-11-21T17:42:07;7.50;99.90
18189;DHT22;9219;50.396;8.546;2023-11-21T17:44:34;7.50;99.90
18189;DHT22;9219;50.396;8.546;2023-11-21T17:47:01;7.50;99.90
18189;DHT22;9219;50.396;8.546;2023-11-21T17:53:28;7.40;99.90
18189;DHT22;9219;50.396;8.546;2023-11-21T17:55:55;7.50;99.90
18189;DHT22;9219;50.396;8.546;2023-11-21T17:58:22;7.50;99.90
18189;DHT22;9219;50.396;8.546;2023-11-21T18:00:49;7.40;99.90
18189;DHT22;9219;50.396;8.546;2023-11-21T18:03:18;7.10;99.90
18189;DHT22;9219;50.396;8.546;2023-11-21T18:05:46;6.90;99.90
18189;DHT22;9219;50.396;8.546;2023-11-21T18:08:13;6.80;99.90
18189;DHT22;9219;50.396;8.546;2023-11-21T18:10:42;6.80;99.90
18189;DHT22;9219;50.396;8.546;2023-11-21T18:18:13;6.30;99.90
18189;DHT22;9219;50.396;8.546;2023-11-21T18:20:40;6.10;99.90
18189;DHT22;9219;50.396;8.546;2023-11-21T18:23:08;6.10;99.90
18189;DHT22;9219;50.396;8.546;2023-11-21T18:25:36;6.20;99.90
18189;DHT22;9219;50.396;8.546;2023-11-21T18:28:05;6.00;99.90
18189;DHT22;9219;50.396;8.546;2023-11-21T18:30:32;6.00;99.90
18189;DHT22;9219;50.396;8.546;2023-11-21T18:33:00;6.00;99.90
18189;DHT22;9219;50.396;8.546;2023-11-21T18:38:55;5.50;99.90
18189;DHT22;9219;50.396;8.546;2023-11-21T18:41:24;5.70;99.90
18189;DHT22;9219;50.396;8.546;2023-11-21T18:43:51;5.80;99.90
18189;DHT22;9219;50.396;8.546;2023-11-21T18:46:20;5.30;99.90
18189;DHT22;9219;50.396;8.546;2023-11-21T18:48:47;5.40;99.90
18189;DHT22;9219;50.396;8.546;2023-11-21T18:51:15;5.60;99.90
18189;DHT22;9219;50.396;8.546;2023-11-21T18:53:43;5.50;99.90
18189;DHT22;9219;50.396;8.546;2023-11-21T19:02:41;5.30;99.90
18189;DHT22;9219;50.396;8.546;2023-11-21T19:05:09;5.30;99.90
18189;DHT22;9219;50.396;8.546;2023-11-21T19:07:37;5.50;99.90
18189;DHT22;9219;50.396;8.546;2023-11-21T19:10:05;5.20;99.90
18189;DHT22;9219;50.396;8.546;2023-11-21T19:12:36;5.10;99.90
18189;DHT22;9219;50.396;8.546;2023-11-21T19:15:06;5.20;99.90
18189;DHT22;9219;50.396;8.546;2023-11-21T19:17:35;5.20;99.90
18189;DHT22;9219;50.396;8.546;2023-11-21T19:20:07;5.40;99.90
18189;DHT22;9219;50.396;8.546;2023-11-21T19:22:53;5.30;99.90
18189;DHT22;9219;50.396;8.546;2023-11-21T19:25:21;5.10;99.90